Wilbur by the Sea, Florida
Current Conditions -  °F | °C
As of 9:47 PM on Monday 26 Jan 2015 (Local Time) from KEVB Reporting Station
Clear Clear  
Wind Chill:   Ceiling: Unl
Heat Index:   Visibility: 10mi
Dew Point:   Wind: 9mph
Humidity: 76%   Direction: 270°W
Pressure: 29.93"   Gusts: NA
Location:  29.1091°N, 80.9979°W
Report Text: KEVB 270247Z 27008KT 10SM SKC 09/05 A2993 RMK LAST
Loading
Personal Weather Stations






























Interactive Weather Map New forecast layout! Learn more

10-Day Weather Forecast

Advertisements
Track Severe Weather on mobile